Aviation Digital Data Service (ADDS)

Output produced by METARs form (0504 UTC 03 July 2022)
found at http://www.aviationweather.gov/metar/data/
 
PLCH 030500Z 10005KT 9999 FEW018TCU SCT019 27/23 Q1008
PLCH 030400Z 11007KT 9999 SCT019 27/23 Q1008
PLCH 030300Z 11008KT 9999 FEW018TCU SCT019 28/23 Q1008
PLCH 030200Z 12008KT 9999 FEW018TCU SCT019 28/24 Q1008
PLCH 030100Z 11008KT 9999 FEW018TCU SCT019 29/23 Q1008
PLCH 030000Z 11008G18KT 9999 SCT020 29/23 Q1008
PLCH 022300Z 11009KT 9999 SCT019 30/24 Q1008
PLCH 022200Z 10007KT 9999 FEW020 30/24 Q1009
PLCH 022100Z 10010KT 9999 SCT019 29/23 Q1010
PLCH 022000Z 11009KT 9999 SCT019 29/23 Q1010
PLCH 021900Z 12007KT 9999 FEW018TCU 28/23 Q1010
PLCH 021800Z 11007KT 9999 SCT019 27/23 Q1010
PLCH 021700Z 11004KT 9999 FEW020 26/23 Q1009
PLCH 021600Z 12005KT 9999 FEW020 26/23 Q1009
PLCH 021500Z 11007KT 9999 FEW020 26/23 Q1009
PLCH 021400Z 11005KT 9999 FEW020 26/23 Q1009
PLCH 021300Z 11006KT 9999 FEW020 26/23 Q1009
PLCH 021200Z 11005KT 9999 FEW020 26/23 Q1009
PLCH 021100Z 11006KT 9999 FEW020 26/23 Q1010
PLCH 021000Z 10005KT 9999 FEW020 26/23 Q1011
PLCH 020900Z 10005KT 9999 FEW020 26/23 Q1011
PLCH 020800Z 10007KT 9999 FEW020 26/23 Q1011
PLCH 020700Z 11007KT 9999 FEW020 26/23 Q1010
PLCH 020600Z 11008KT 9999 FEW020 27/23 Q1010
TAF PLCH 022317Z 0300/0324 10009KT 9999 FEW019 
     PROB40 TEMP0 0309/0318 5000 SHRA BKN015